createdAt,value
2018-09-02T00:00:29.363Z,12.43
2018-09-02T00:03:04.773Z,13.00
2018-09-02T00:05:39.978Z,14.67
2018-09-02T00:08:14.323Z,15.27
2018-09-02T00:10:48.549Z,13.23
2018-09-02T00:13:22.741Z,13.73
2018-09-02T00:15:56.937Z,10.93
2018-09-02T00:18:31.102Z,13.27
2018-09-02T00:21:05.334Z,12.87
2018-09-02T00:23:39.503Z,12.90
2018-09-02T00:26:13.694Z,13.97
2018-09-02T00:28:47.883Z,11.83
2018-09-02T00:31:22.116Z,14.23
2018-09-02T00:33:56.399Z,13.03
2018-09-02T00:36:31.751Z,13.47
2018-09-02T00:39:07.899Z,14.50
2018-09-02T00:41:42.076Z,16.27
2018-09-02T00:44:16.208Z,17.30
2018-09-02T00:46:50.412Z,14.23
2018-09-02T00:49:25.651Z,16.57
2018-09-02T00:52:00.823Z,11.50
2018-09-02T00:54:35.009Z,15.13
2018-09-02T00:57:09.210Z,13.47
2018-09-02T00:59:43.459Z,13.30
2018-09-02T01:02:17.664Z,16.03
2018-09-02T01:04:51.796Z,13.57
2018-09-02T01:07:25.972Z,14.53
2018-09-02T01:10:00.131Z,16.00
2018-09-02T01:12:34.553Z,12.37
2018-09-02T01:15:08.739Z,12.43
2018-09-02T01:17:42.958Z,14.70
2018-09-02T01:20:17.220Z,13.00
2018-09-02T01:22:51.442Z,12.00
2018-09-02T01:25:25.628Z,15.30
2018-09-02T01:27:59.832Z,13.83
2018-09-02T01:30:35.007Z,13.23
2018-09-02T01:33:09.952Z,11.40
2018-09-02T01:35:44.119Z,12.87
2018-09-02T01:38:18.304Z,12.43
2018-09-02T01:40:52.452Z,13.07
2018-09-02T01:43:27.737Z,13.80
2018-09-02T01:46:01.886Z,15.93
2018-09-02T01:48:37.091Z,15.83
2018-09-02T01:51:12.356Z,14.37
2018-09-02T01:53:46.531Z,14.27
2018-09-02T01:56:20.697Z,13.93
2018-09-02T01:58:54.893Z,13.00
2018-09-02T02:01:29.088Z,13.23
2018-09-02T02:04:03.401Z,15.13
2018-09-02T02:06:37.568Z,16.43
2018-09-02T02:09:12.109Z,11.83
2018-09-02T02:11:46.543Z,13.83
2018-09-02T02:14:21.802Z,13.80
2018-09-02T02:16:56.026Z,16.00
2018-09-02T02:19:30.782Z,14.63
2018-09-02T02:22:06.053Z,14.83
2018-09-02T02:24:40.318Z,10.83
2018-09-02T02:27:14.546Z,13.67
2018-09-02T02:29:48.815Z,11.00
2018-09-02T02:32:22.992Z,12.20
2018-09-02T02:34:57.241Z,13.60
2018-09-02T02:37:31.438Z,12.03
2018-09-02T02:40:06.682Z,12.57
2018-09-02T02:42:40.906Z,11.90
2018-09-02T02:45:15.095Z,11.13
2018-09-02T02:47:50.324Z,11.43
2018-09-02T02:50:24.533Z,13.10
2018-09-02T02:53:05.735Z,11.60
2018-09-02T02:55:39.960Z,11.63
2018-09-02T02:58:15.242Z,11.10
2018-09-02T03:00:49.470Z,10.70
2018-09-02T03:03:23.729Z,11.70
2018-09-02T03:05:57.933Z,12.73
2018-09-02T03:08:33.144Z,8.63
2018-09-02T03:11:07.346Z,11.43
2018-09-02T03:13:41.619Z,9.63
2018-09-02T03:16:15.824Z,9.70
2018-09-02T03:18:50.035Z,7.87
2018-09-02T03:21:25.265Z,8.07
2018-09-02T03:23:59.435Z,9.03
2018-09-02T03:26:34.747Z,9.97
2018-09-02T03:29:08.964Z,9.67
2018-09-02T03:31:44.184Z,9.67
2018-09-02T03:34:19.447Z,10.50
2018-09-02T03:36:54.608Z,10.67
2018-09-02T03:39:28.838Z,9.90
2018-09-02T03:42:03.106Z,11.17
2018-09-02T03:44:37.323Z,8.87
2018-09-02T03:47:11.566Z,10.63
2018-09-02T03:49:45.804Z,10.60
2018-09-02T03:52:20.035Z,11.57
2018-09-02T03:54:54.221Z,10.57
2018-09-02T03:57:28.442Z,9.90
2018-09-02T04:00:02.670Z,12.57
2018-09-02T04:02:36.886Z,11.43
2018-09-02T04:05:11.111Z,19.73
2018-09-02T04:07:45.339Z,21.83
2018-09-02T04:10:19.641Z,95.40
2018-09-02T04:12:54.957Z,89.90
2018-09-02T04:15:29.149Z,35.57
2018-09-02T04:18:03.364Z,55.03
2018-09-02T04:20:37.804Z,52.80
2018-09-02T04:23:12.030Z,43.67
2018-09-02T04:25:46.248Z,58.77
2018-09-02T04:28:20.480Z,70.67
2018-09-02T04:30:54.715Z,79.60
2018-09-02T04:33:28.958Z,63.30
2018-09-02T04:36:03.147Z,78.70
2018-09-02T04:38:38.415Z,79.90
2018-09-02T04:41:12.627Z,61.23
2018-09-02T04:43:46.902Z,46.40
2018-09-02T04:46:22.146Z,121.10
2018-09-02T04:48:56.394Z,47.50
2018-09-02T04:51:30.600Z,64.23
2018-09-02T04:54:04.828Z,35.07
2018-09-02T04:56:40.096Z,69.37
2018-09-02T04:59:15.350Z,71.10
2018-09-02T05:01:49.555Z,30.77
2018-09-02T05:04:23.764Z,38.70
2018-09-02T05:06:57.989Z,37.90
2018-09-02T05:09:32.260Z,57.77
2018-09-02T05:12:06.555Z,40.53
2018-09-02T05:14:41.790Z,51.27
2018-09-02T05:17:15.971Z,16.13
2018-09-02T05:19:50.248Z,22.17
2018-09-02T05:22:24.551Z,41.20
2018-09-02T05:24:59.768Z,56.50
2018-09-02T05:27:34.599Z,46.35
2018-09-02T05:30:09.735Z,41.33
2018-09-02T05:32:44.001Z,44.83
2018-09-02T05:35:19.806Z,28.10
2018-09-02T05:37:54.629Z,11.33
2018-09-02T05:40:29.426Z,10.72
2018-09-02T05:43:04.223Z,17.40
2018-09-02T05:45:39.024Z,12.63
2018-09-02T05:48:14.794Z,14.47
2018-09-02T05:50:49.580Z,9.58
2018-09-02T05:53:24.367Z,9.25
2018-09-02T05:55:59.117Z,9.35
2018-09-02T05:58:34.003Z,10.13
2018-09-02T06:01:08.777Z,7.97
2018-09-02T06:03:43.531Z,9.60
2018-09-02T06:06:18.324Z,9.43
2018-09-02T06:08:54.094Z,10.68
2018-09-02T06:11:28.872Z,9.98
2018-09-02T06:14:04.228Z,13.68
2018-09-02T06:16:39.059Z,15.60
2018-09-02T06:19:17.906Z,15.25
2018-09-02T06:21:52.814Z,15.05
2018-09-02T06:24:27.560Z,12.85
2018-09-02T06:27:02.329Z,14.43
2018-09-02T06:29:37.139Z,12.88
2018-09-02T06:32:12.937Z,15.28
2018-09-02T06:34:47.751Z,15.15
2018-09-02T06:37:22.543Z,11.65
2018-09-02T06:39:57.495Z,11.25
2018-09-02T06:42:32.216Z,9.78
2018-09-02T06:45:08.013Z,8.23
2018-09-02T06:47:42.788Z,7.47
2018-09-02T06:50:18.546Z,12.80
2018-09-02T06:52:54.325Z,8.13
2018-09-02T06:55:28.817Z,9.70
2018-09-02T06:58:04.615Z,6.75
2018-09-02T07:00:39.187Z,7.10
2018-09-02T07:03:14.727Z,6.80
2018-09-02T07:05:49.210Z,6.40
2018-09-02T07:08:23.702Z,8.03
2018-09-02T07:10:58.187Z,6.07
2018-09-02T07:13:32.630Z,6.97
2018-09-02T07:16:07.711Z,4.37
2018-09-02T07:18:42.189Z,4.37
2018-09-02T07:21:16.666Z,4.37
2018-09-02T07:23:51.132Z,4.70
2018-09-02T07:26:25.595Z,5.43
2018-09-02T07:29:00.053Z,4.07
2018-09-02T07:31:34.639Z,4.80
2018-09-02T07:34:10.319Z,4.47
2018-09-02T07:36:45.974Z,3.20
2018-09-02T07:39:20.471Z,3.80
2018-09-02T07:41:54.984Z,7.10
2018-09-02T07:44:30.585Z,3.00
2018-09-02T07:47:06.088Z,3.60
2018-09-02T07:49:40.602Z,4.03
2018-09-02T07:52:15.042Z,2.90
2018-09-02T07:54:50.529Z,3.80
2018-09-02T07:57:25.003Z,5.50
2018-09-02T07:59:59.508Z,3.50
2018-09-02T08:02:34.990Z,4.37
2018-09-02T08:05:09.811Z,3.23
2018-09-02T08:07:44.293Z,4.27
2018-09-02T08:10:18.803Z,4.50
2018-09-02T08:12:53.310Z,2.27
2018-09-02T08:15:28.998Z,2.50
2018-09-02T08:18:03.476Z,2.20
2018-09-02T08:20:38.963Z,4.60
2018-09-02T08:23:13.556Z,4.87
2018-09-02T08:25:48.196Z,3.77
2018-09-02T08:28:23.787Z,2.67
2018-09-02T08:30:58.585Z,3.92
2018-09-02T08:33:33.324Z,5.95
2018-09-02T08:36:08.086Z,5.33
2018-09-02T08:38:42.890Z,3.67
2018-09-02T08:41:17.669Z,6.15
2018-09-02T08:43:52.418Z,4.15
2018-09-02T08:46:27.203Z,3.33
2018-09-02T08:49:01.989Z,2.87
2018-09-02T08:51:37.807Z,4.90
2018-09-02T08:54:12.547Z,4.50
2018-09-02T08:56:47.335Z,8.05
2018-09-02T08:59:22.124Z,4.03
2018-09-02T09:01:56.890Z,4.47
2018-09-02T09:04:31.652Z,5.85
2018-09-02T09:07:06.491Z,2.65
2018-09-02T09:09:41.268Z,3.45
2018-09-02T09:12:15.800Z,2.60
2018-09-02T09:14:50.312Z,4.47
2018-09-02T09:17:24.785Z,5.43
2018-09-02T09:19:59.277Z,3.43
2018-09-02T09:22:33.813Z,3.47
2018-09-02T09:25:09.967Z,3.40
2018-09-02T09:27:44.604Z,3.00
2018-09-02T09:30:19.117Z,3.17
2018-09-02T09:32:54.571Z,2.80
2018-09-02T09:35:30.043Z,2.83
2018-09-02T09:38:05.508Z,3.83
2018-09-02T09:40:41.068Z,2.57
2018-09-02T09:43:16.580Z,3.37
2018-09-02T09:45:51.083Z,2.90
2018-09-02T09:48:25.772Z,3.13
2018-09-02T09:51:01.192Z,3.83
2018-09-02T09:53:35.654Z,2.93
2018-09-02T09:56:10.133Z,3.47
2018-09-02T09:58:44.612Z,2.40
2018-09-02T10:01:20.098Z,2.90
2018-09-02T10:03:54.590Z,2.60
2018-09-02T10:06:29.081Z,2.87
2018-09-02T10:09:04.649Z,3.23
2018-09-02T10:11:40.181Z,4.67
2018-09-02T10:14:14.690Z,4.23
2018-09-02T10:16:49.218Z,2.40
2018-09-02T10:19:23.712Z,4.00
2018-09-02T10:21:58.221Z,3.63
2018-09-02T10:24:33.738Z,4.53
2018-09-02T10:27:09.275Z,3.80
2018-09-02T10:29:43.722Z,4.90
2018-09-02T10:32:18.186Z,3.13
2018-09-02T10:34:52.676Z,2.90
2018-09-02T10:37:27.163Z,7.23
2018-09-02T10:40:01.666Z,3.07
2018-09-02T10:42:36.160Z,4.63
2018-09-02T10:45:10.675Z,4.63
2018-09-02T10:47:45.152Z,3.47
2018-09-02T10:50:19.808Z,3.20
2018-09-02T10:52:54.284Z,6.20
2018-09-02T10:55:29.036Z,3.40
2018-09-02T10:58:03.773Z,3.83
2018-09-02T11:00:38.563Z,2.95
2018-09-02T11:03:14.343Z,3.80
2018-09-02T11:05:49.116Z,4.78
2018-09-02T11:08:23.893Z,5.37
2018-09-02T11:10:58.697Z,2.98
2018-09-02T11:13:33.618Z,3.55
2018-09-02T11:16:08.526Z,2.83
2018-09-02T11:18:43.339Z,3.33
2018-09-02T11:21:19.170Z,2.60
2018-09-02T11:23:53.932Z,2.95
2018-09-02T11:26:29.682Z,2.55
2018-09-02T11:29:04.532Z,2.45
2018-09-02T11:31:39.344Z,2.65
2018-09-02T11:34:14.140Z,1.90
2018-09-02T11:36:49.975Z,2.17
2018-09-02T11:39:24.772Z,1.72
2018-09-02T11:41:59.528Z,2.92
2018-09-02T11:44:34.299Z,1.90
2018-09-02T11:47:09.053Z,1.70
2018-09-02T11:49:43.826Z,1.70
2018-09-02T11:52:19.582Z,2.98
2018-09-02T11:54:54.338Z,1.37
2018-09-02T11:57:29.228Z,4.15
2018-09-02T12:00:04.046Z,1.77
2018-09-02T12:02:38.776Z,1.50
2018-09-02T12:05:13.580Z,2.98
2018-09-02T12:07:49.339Z,1.98
2018-09-02T12:10:24.112Z,6.45
2018-09-02T12:12:58.863Z,3.30
2018-09-02T12:15:34.714Z,2.60
2018-09-02T12:18:10.612Z,2.52
2018-09-02T12:20:45.424Z,1.22
2018-09-02T12:23:20.223Z,1.10
2018-09-02T12:25:54.991Z,1.47
2018-09-02T12:28:29.734Z,1.60
2018-09-02T12:31:05.516Z,3.52
2018-09-02T12:33:40.302Z,1.65
2018-09-02T12:36:15.048Z,2.30
2018-09-02T12:38:50.845Z,1.70
2018-09-02T12:41:26.650Z,1.60
2018-09-02T12:44:01.411Z,1.50
2018-09-02T12:46:36.167Z,1.60
2018-09-02T12:49:11.967Z,1.65
2018-09-02T12:51:46.815Z,2.47
2018-09-02T12:54:21.558Z,2.17
2018-09-02T12:56:56.331Z,1.80
2018-09-02T12:59:32.134Z,2.00
2018-09-02T13:02:06.950Z,1.70
2018-09-02T13:04:41.749Z,1.75
2018-09-02T13:07:16.534Z,2.62
2018-09-02T13:09:51.423Z,2.25
2018-09-02T13:12:26.252Z,1.72
2018-09-02T13:15:01.044Z,3.62
2018-09-02T13:17:35.851Z,2.67
2018-09-02T13:20:11.630Z,1.80
2018-09-02T13:22:46.343Z,1.60
2018-09-02T13:25:21.123Z,1.80
2018-09-02T13:27:55.885Z,2.08
2018-09-02T13:30:30.623Z,2.87
2018-09-02T13:33:05.415Z,1.98
2018-09-02T13:35:40.206Z,2.05
2018-09-02T13:38:15.971Z,2.02
2018-09-02T13:40:50.763Z,1.72
2018-09-02T13:43:25.930Z,1.90
2018-09-02T13:46:00.704Z,1.95
2018-09-02T13:48:35.510Z,2.10
2018-09-02T13:51:11.456Z,3.25
2018-09-02T13:53:46.219Z,2.87
2018-09-02T13:56:20.988Z,2.08
2018-09-02T13:58:55.832Z,1.32
2018-09-02T14:01:30.616Z,3.85
2018-09-02T14:04:05.408Z,2.80
2018-09-02T14:06:40.188Z,2.37
2018-09-02T14:09:15.971Z,1.55
2018-09-02T14:11:50.750Z,2.45
2018-09-02T14:14:26.493Z,1.87
2018-09-02T14:17:01.242Z,2.67
2018-09-02T14:19:35.986Z,1.20
2018-09-02T14:22:10.772Z,2.98
2018-09-02T14:24:45.604Z,1.52
2018-09-02T14:27:21.379Z,1.55
2018-09-02T14:29:56.214Z,1.60
2018-09-02T14:32:32.000Z,3.00
2018-09-02T14:35:06.799Z,1.22
2018-09-02T14:37:43.578Z,1.05
2018-09-02T14:40:18.353Z,1.45
2018-09-02T14:42:54.255Z,2.05
2018-09-02T14:45:30.068Z,1.60
2018-09-02T14:48:04.871Z,3.12
2018-09-02T14:50:39.644Z,2.52
2018-09-02T14:53:15.424Z,2.50
2018-09-02T14:55:50.164Z,1.35
2018-09-02T14:58:24.992Z,2.37
2018-09-02T15:00:59.823Z,2.60
2018-09-02T15:03:34.574Z,6.47
2018-09-02T15:06:09.402Z,1.98
2018-09-02T15:08:44.194Z,1.90
2018-09-02T15:11:18.965Z,1.47
2018-09-02T15:13:53.801Z,2.17
2018-09-02T15:16:28.627Z,1.65
2018-09-02T15:19:03.384Z,2.45
2018-09-02T15:21:38.251Z,2.27
2018-09-02T15:24:13.067Z,2.10
2018-09-02T15:26:47.786Z,1.60
2018-09-02T15:29:22.575Z,3.50
2018-09-02T15:31:57.362Z,1.90
2018-09-02T15:34:33.191Z,2.50
2018-09-02T15:37:08.041Z,1.55
2018-09-02T15:39:42.891Z,1.95
2018-09-02T15:42:18.637Z,2.20
2018-09-02T15:44:53.501Z,2.10
2018-09-02T15:47:28.274Z,3.87
2018-09-02T15:50:03.059Z,3.15
2018-09-02T15:52:37.881Z,3.52
2018-09-02T15:55:13.691Z,3.50
2018-09-02T15:57:48.791Z,1.67
2018-09-02T16:00:24.536Z,2.08
2018-09-02T16:02:59.324Z,2.95
2018-09-02T16:05:34.104Z,1.65
2018-09-02T16:08:08.925Z,2.27
2018-09-02T16:10:43.853Z,2.80
2018-09-02T16:13:19.655Z,3.00
2018-09-02T16:15:54.398Z,1.62
2018-09-02T16:18:29.203Z,3.08
2018-09-02T16:21:03.975Z,2.20
2018-09-02T16:23:38.748Z,2.35
2018-09-02T16:26:13.779Z,3.17
2018-09-02T16:28:49.563Z,2.27
2018-09-02T16:31:25.328Z,2.05
2018-09-02T16:34:00.132Z,3.05
2018-09-02T16:36:35.896Z,2.35
2018-09-02T16:39:11.480Z,2.05
2018-09-02T16:41:46.236Z,4.70
2018-09-02T16:44:21.019Z,2.85
2018-09-02T16:46:55.793Z,5.53
2018-09-02T16:49:31.639Z,2.98
2018-09-02T16:52:06.408Z,2.08
2018-09-02T16:54:41.163Z,1.95
2018-09-02T16:57:15.922Z,2.27
2018-09-02T16:59:50.683Z,2.00
2018-09-02T17:02:25.525Z,3.65
2018-09-02T17:05:04.779Z,2.90
2018-09-02T17:07:39.551Z,1.70
2018-09-02T17:10:14.356Z,6.17
2018-09-02T17:12:49.368Z,2.00
2018-09-02T17:15:24.366Z,1.65
2018-09-02T17:17:59.207Z,2.92
2018-09-02T17:20:38.460Z,2.92
2018-09-02T17:23:14.283Z,2.15
2018-09-02T17:25:50.102Z,2.72
2018-09-02T17:28:25.029Z,2.67
2018-09-02T17:30:59.820Z,3.55
2018-09-02T17:33:34.623Z,1.77
2018-09-02T17:36:09.588Z,2.30
2018-09-02T17:38:45.361Z,2.10
2018-09-02T17:41:20.172Z,2.30
2018-09-02T17:43:54.942Z,2.42
2018-09-02T17:46:29.767Z,2.50
2018-09-02T17:49:04.558Z,4.78
2018-09-02T17:51:39.567Z,2.45
2018-09-02T17:54:14.352Z,2.52
2018-09-02T17:56:50.553Z,3.10
2018-09-02T17:59:25.328Z,4.55
2018-09-02T18:02:00.158Z,2.80
2018-09-02T18:04:34.959Z,4.20
2018-09-02T18:07:09.744Z,8.43
2018-09-02T18:09:44.506Z,5.10
2018-09-02T18:12:19.299Z,3.37
2018-09-02T18:14:54.086Z,5.05
2018-09-02T18:17:29.875Z,4.42
2018-09-02T18:20:04.776Z,5.28
2018-09-02T18:22:39.560Z,4.53
2018-09-02T18:25:14.352Z,4.28
2018-09-02T18:27:53.252Z,4.00
2018-09-02T18:30:28.004Z,5.58
2018-09-02T18:33:02.823Z,4.58
2018-09-02T18:35:37.564Z,3.92
2018-09-02T18:38:12.348Z,3.98
2018-09-02T18:40:48.168Z,5.17
2018-09-02T18:43:22.971Z,4.58
2018-09-02T18:45:57.732Z,5.85
2018-09-02T18:48:32.509Z,5.42
2018-09-02T18:51:07.313Z,4.95
2018-09-02T18:53:42.077Z,5.55
2018-09-02T18:56:16.864Z,6.42
2018-09-02T18:58:52.773Z,6.10
2018-09-02T19:01:27.525Z,5.00
2018-09-02T19:04:03.527Z,7.50
2018-09-02T19:06:38.299Z,6.33
2018-09-02T19:09:13.049Z,7.17
2018-09-02T19:11:48.934Z,6.10
2018-09-02T19:14:23.980Z,7.33
2018-09-02T19:16:58.757Z,6.65
2018-09-02T19:19:33.558Z,4.92
2018-09-02T19:22:10.093Z,6.65
2018-09-02T19:24:44.863Z,7.70
2018-09-02T19:27:19.686Z,5.55
2018-09-02T19:29:54.564Z,8.50
2018-09-02T19:32:29.503Z,6.85
2018-09-02T19:35:05.847Z,7.10
2018-09-02T19:37:40.613Z,6.83
2018-09-02T19:40:15.407Z,9.55
2018-09-02T19:42:50.148Z,6.75
2018-09-02T19:45:24.902Z,8.05
2018-09-02T19:47:59.632Z,7.90
2018-09-02T19:50:34.353Z,8.40
2018-09-02T19:53:09.116Z,10.13
2018-09-02T19:55:43.881Z,6.85
2018-09-02T19:58:18.622Z,8.03
2018-09-02T20:00:54.380Z,8.70
2018-09-02T20:03:29.120Z,9.93
2018-09-02T20:06:03.880Z,8.33
2018-09-02T20:08:38.642Z,8.68
2018-09-02T20:11:14.391Z,8.73
2018-09-02T20:13:49.190Z,9.18
2018-09-02T20:16:24.963Z,8.35
2018-09-02T20:18:59.786Z,8.55
2018-09-02T20:21:35.039Z,8.93
2018-09-02T20:24:09.802Z,10.65
2018-09-02T20:26:45.597Z,9.78
2018-09-02T20:29:20.351Z,9.40
2018-09-02T20:31:55.125Z,10.78
2018-09-02T20:34:29.870Z,9.23
2018-09-02T20:37:04.680Z,8.28
2018-09-02T20:39:39.448Z,9.48
2018-09-02T20:42:15.220Z,12.13
2018-09-02T20:44:49.977Z,13.03
2018-09-02T20:47:24.715Z,9.48
2018-09-02T20:49:59.536Z,10.78
2018-09-02T20:52:34.355Z,10.72
2018-09-02T20:55:10.171Z,9.38
2018-09-02T20:57:44.940Z,10.03
2018-09-02T21:00:19.743Z,11.70
2018-09-02T21:02:55.539Z,12.28
2018-09-02T21:05:30.472Z,10.80
2018-09-02T21:08:06.344Z,11.25
2018-09-02T21:10:41.083Z,12.25
2018-09-02T21:13:15.868Z,11.22
2018-09-02T21:15:50.704Z,10.95
2018-09-02T21:18:25.495Z,15.13
2018-09-02T21:21:01.286Z,12.98
2018-09-02T21:23:37.057Z,13.15
2018-09-02T21:26:12.848Z,15.32
2018-09-02T21:28:47.679Z,11.15
2018-09-02T21:31:22.587Z,14.73
2018-09-02T21:33:58.422Z,11.57
2018-09-02T21:36:33.182Z,14.35
2018-09-02T21:39:08.984Z,13.43
2018-09-02T21:41:43.778Z,12.40
2018-09-02T21:44:18.583Z,13.45
2018-09-02T21:46:53.419Z,16.42
2018-09-02T21:49:28.167Z,15.68
2018-09-02T21:52:02.944Z,15.80
2018-09-02T21:54:37.763Z,15.20
2018-09-02T21:57:13.563Z,12.73
2018-09-02T21:59:48.435Z,17.82
2018-09-02T22:02:23.232Z,16.07
2018-09-02T22:05:00.077Z,14.65
2018-09-02T22:07:34.885Z,14.35
2018-09-02T22:10:09.865Z,16.57
2018-09-02T22:12:44.614Z,13.40
2018-09-02T22:15:19.389Z,11.57
2018-09-02T22:17:55.264Z,14.98
2018-09-02T22:20:30.008Z,16.05
2018-09-02T22:23:04.799Z,14.75
2018-09-02T22:25:39.676Z,15.13
2018-09-02T22:28:14.632Z,17.12
2018-09-02T22:30:50.421Z,12.50
2018-09-02T22:33:26.233Z,15.85
2018-09-02T22:36:00.983Z,15.10
2018-09-02T22:38:35.874Z,15.60
2018-09-02T22:41:12.028Z,14.50
2018-09-02T22:43:46.942Z,17.35
2018-09-02T22:46:22.775Z,13.58
2018-09-02T22:48:57.516Z,17.27
2018-09-02T22:51:32.306Z,14.73
2018-09-02T22:54:07.096Z,17.50
2018-09-02T22:56:42.931Z,16.30
2018-09-02T22:59:17.755Z,13.62
2018-09-02T23:01:52.518Z,12.73
2018-09-02T23:04:27.279Z,12.90
2018-09-02T23:07:02.061Z,12.23
2018-09-02T23:09:36.854Z,10.72
2018-09-02T23:12:11.676Z,13.75
2018-09-02T23:14:47.399Z,14.60
2018-09-02T23:17:22.183Z,13.45
2018-09-02T23:19:57.032Z,11.73
2018-09-02T23:22:32.792Z,13.98
2018-09-02T23:25:07.590Z,12.30
2018-09-02T23:27:42.397Z,12.45
2018-09-02T23:30:17.162Z,11.00
2018-09-02T23:32:52.895Z,10.45
2018-09-02T23:35:27.667Z,13.55
2018-09-02T23:38:02.417Z,12.40
2018-09-02T23:40:37.173Z,10.32
2018-09-02T23:43:12.949Z,9.85
2018-09-02T23:45:47.985Z,14.00
2018-09-02T23:48:22.755Z,11.40
2018-09-02T23:50:57.508Z,12.58
2018-09-02T23:53:32.288Z,10.85
2018-09-02T23:56:07.780Z,10.98
2018-09-02T23:58:42.563Z,15.20
